• Join FlightAware (Why Join?)
  • Login
  • US Flag 
03:58AM EST


 

Airport Tracker/Info


-or-


 

Live Flight TrackerFlight Track Log ✈ N504JC ✈ 20-Feb-2012 ✈ KELM - KVKX

Flight Track Log - Related Links

Times and Time Zones

All times are in EST time to prevent confusion due to time zone crossing. See the N504JC flight status page for this flight to view local times or setup timezone preferences in your user account.

Time Position Orientation Groundspeed Altitude Reporting Facility
EST Latitude Longitude Course Direction KTS MPH feet Rate Location/Type
11:22AM 42.1176 -76.8833 148° Southeast  Level FlightAware Approximate
11:23AM 41.8381 -76.6533 188° South 160 184 8,500  Level New York Center
11:24AM 41.7961 -76.6608 184° South 160 184 8,500  Level New York Center
11:25AM 41.7522 -76.6653 189° South 160 184 8,600 60 Climbing New York Center
11:26AM 41.7058 -76.6750 187° South 160 184 8,700  Climbing New York Center
11:27AM 41.6617 -76.6822 185° South 160 184 8,700  Level New York Center
11:28AM 41.6219 -76.6869 184° South 160 184 8,700 -60 Level New York Center
11:29AM 41.5781 -76.6914 184° South 160 184 8,600 -120 Descending New York Center
11:30AM 41.5297 -76.6956 188° South 160 184 8,500 -60 Descending New York Center
11:31AM 41.4900 -76.7031 188° South 160 184 8,500  Level New York Center
11:32AM 41.4478 -76.7106 187° South 160 184 8,500  Level New York Center
11:33AM 41.4036 -76.7178 187° South 160 184 8,500  Level New York Center
11:34AM 41.3597 -76.7247 188° South 160 184 8,500  Level New York Center
11:35AM 41.3175 -76.7322 184° South 160 184 8,600  Climbing New York Center
11:36AM 41.2736 -76.7367 185° South 160 184 8,600  Level New York Center
11:37AM 41.2317 -76.7411 190° South 160 184 8,600  Level New York Center
11:38AM 41.1875 -76.7511 182° South 160 184 8,600  Level New York Center
11:39AM 41.1458 -76.7528 182° South 160 184 8,600  Level New York Center
11:40AM 41.1019 -76.7544 182° South 160 184 8,700  Climbing New York Center
11:41AM 41.0600 -76.7564 187° South 160 184 8,700 -60 Level New York Center
11:42AM 41.0161 -76.7633 187° South 160 184 8,600 -120 Descending New York Center
11:43AM 40.9719 -76.7706 187° South 160 184 8,500 -60 Descending New York Center
11:44AM 40.9278 -76.7778 198° South 160 184 8,500 -60 Level New York Center
11:45AM 40.8850 -76.7958 196° South 160 184 8,400 -60 Descending New York Center
11:46AM 40.8428 -76.8114 188° South 154 177 8,400  Level New York Center
11:47AM 40.8047 -76.8189 184° South 154 177 8,400  Level New York Center
11:48AM 40.7608 -76.8233 183° South 149 171 8,400  Level New York Center
11:49AM 40.7231 -76.8256 184° South 149 171 8,400  Level New York Center
11:50AM 40.6772 -76.8294 186° South 149 171 8,400  Level New York Center
11:51AM 40.6414 -76.8347 184° South 149 171 8,500 60 Climbing New York Center
11:52AM 40.5953 -76.8389 185° South 149 171 8,600  Climbing New York Center
11:53AM 40.5556 -76.8433 187° South 154 177 8,600  Level New York Center
11:54AM 40.5133 -76.8506 186° South 154 177 8,600  Level New York Center
11:55AM 40.4756 -76.8556 184° South 154 177 8,600  Level New York Center
11:56AM 40.4297 -76.8597 182° South 154 177 8,600  Level New York Center
11:57AM 40.3878 -76.8614 185° South 154 177 8,700  Climbing New York Center
11:58AM 40.3458 -76.8658 185° South 154 177 8,700  Level New York Center
11:59AM 40.3039 -76.8703 189° South 154 177 8,700  Level New York Center
12:00PM 40.2681 -76.8781 187° South 154 177 8,700  Level New York Center
12:01PM 40.2219 -76.8850 182° South 149 171 8,700 -60 Level New York Center
12:02PM 40.1800 -76.8867 185° South 149 171 8,600 -180 Descending New York Center
12:03PM 40.1422 -76.8914 183° South 154 177 8,400 -240 Descending New York Center
12:05PM 40.0333 -76.9000 180° South 159 183 7,800 -300 Descending Potomac TRACON
12:06PM 39.9833 -76.9000 189° South 159 183 7,500 -360 Descending Potomac TRACON
12:08PM 39.9000 -76.9167 180° South 156 180 6,900 -360 Descending Potomac TRACON
12:09PM 39.8667 -76.9167 194° South 156 180 6,500 -360 Descending Potomac TRACON
12:10PM 39.8167 -76.9333 180° South 156 180 6,200 -360 Descending Potomac TRACON
12:11PM 39.7667 -76.9333 180° South 162 186 5,800 -360 Descending Potomac TRACON
12:12PM 39.7333 -76.9333 180° South 162 186 5,500 -300 Descending Potomac TRACON
12:13PM 39.6833 -76.9333 180° South 165 190 5,200 -420 Descending Potomac TRACON
12:14PM 39.6500 -76.9333 180° South 160 184 4,800 -360 Descending Potomac TRACON
12:15PM 39.6000 -76.9333 180° South 156 180 4,600 -300 Descending Potomac TRACON
12:16PM 39.5500 -76.9333 180° South 158 182 4,300 -480 Descending Potomac TRACON
12:17PM 39.5167 -76.9333 159° South 162 186 3,700 -600 Descending Potomac TRACON
12:18PM 39.4833 -76.9167 180° South 156 180 3,200 -540 Descending Potomac TRACON
12:19PM 39.4333 -76.9167 163° South 149 171 2,700 -420 Descending Potomac TRACON
12:21PM 39.3500 -76.8833 169° South 151 174 2,100 -360 Descending Potomac TRACON
12:23PM 39.2833 -76.8667 180° South 151 174 1,500 -300 Descending Potomac TRACON
12:24PM 39.2333 -76.8667 142° Southeast 135 155 1,300 -120 Descending Potomac TRACON
12:25PM 39.2167 -76.8500 180° South 137 158 1,300  Level Potomac TRACON
12:26PM 39.1667 -76.8500 159° South 137 158 1,300  Level Potomac TRACON
12:27PM 39.1333 -76.8333 159° South 137 158 1,300  Level Potomac TRACON
12:28PM 39.1000 -76.8167 159° South 137 158 1,300  Level Potomac TRACON
12:29PM 39.0667 -76.8000 159° South 130 150 1,400 180 Climbing Potomac TRACON
12:30PM 39.0333 -76.7833 159° South 128 147 1,700  Climbing Potomac TRACON
12:31PM 39.0000 -76.7667 165° South 141 162 1,500 -180 Descending Potomac TRACON
12:32PM 38.9500 -76.7500 159° South 135 155 1,400 -120 Descending Potomac TRACON
12:33PM 38.9167 -76.7333 159° South 137 158 1,300 -60 Descending Potomac TRACON
12:34PM 38.8833 -76.7167 159° South 131 151 1,300  Level Potomac TRACON
12:35PM 38.8500 -76.7000 180° South 132 152 1,300  Level Potomac TRACON
12:36PM 38.8167 -76.7000 180° South 132 152 1,300  Level Potomac TRACON
12:37PM 38.7833 -76.7000 201° Southwest 136 157 1,300  Level Potomac TRACON
12:38PM 38.7500 -76.7167 201° Southwest 128 147 1,300  Level Potomac TRACON
12:39PM 38.7167 -76.7333 237° Southwest 128 147 1,300  Level Potomac TRACON
12:40PM 38.7000 -76.7667 247° West 123 142 1,300  Level Potomac TRACON
12:41PM 38.6833 -76.8167 270° West 116 133 1,300 -60 Level Potomac TRACON
12:42PM 38.6833 -76.8500 270° West 114 131 1,200 -120 Descending Potomac TRACON